createdAt,value
2023-05-18T00:01:16.979Z,2.50
2023-05-18T00:03:43.961Z,1.73
2023-05-18T00:06:10.796Z,2.00
2023-05-18T00:08:37.876Z,2.42
2023-05-18T00:11:04.950Z,2.75
2023-05-18T00:13:31.697Z,2.80
2023-05-18T00:15:58.502Z,2.55
2023-05-18T00:18:26.688Z,2.33
2023-05-18T00:20:58.995Z,2.85
2023-05-18T00:23:33.156Z,2.78
2023-05-18T00:26:00.399Z,2.78
2023-05-18T00:28:27.124Z,3.13
2023-05-18T00:30:53.928Z,2.13
2023-05-18T00:33:20.971Z,2.70
2023-05-18T00:35:47.750Z,2.15
2023-05-18T00:38:17.118Z,2.30
2023-05-18T00:40:44.005Z,2.00
2023-05-18T00:43:10.735Z,2.03
2023-05-18T00:45:37.580Z,2.03
2023-05-18T00:48:04.778Z,2.33
2023-05-18T00:50:31.935Z,1.70
2023-05-18T00:52:59.106Z,2.00
2023-05-18T00:55:28.102Z,2.30
2023-05-18T00:57:56.547Z,2.20
2023-05-18T01:00:24.040Z,2.35
2023-05-18T01:02:51.441Z,2.00
2023-05-18T01:05:20.211Z,2.10
2023-05-18T01:07:46.996Z,1.52
2023-05-18T01:10:14.177Z,1.58
2023-05-18T01:12:49.582Z,1.63
2023-05-18T01:15:18.544Z,1.50
2023-05-18T01:18:23.579Z,2.50
2023-05-18T01:20:57.676Z,4.20
2023-05-18T01:23:41.594Z,2.60
2023-05-18T01:26:37.990Z,2.30
2023-05-18T01:29:07.036Z,6.53
2023-05-18T01:31:33.963Z,4.10
2023-05-18T01:34:00.963Z,3.00
2023-05-18T01:36:27.684Z,2.83
2023-05-18T01:38:54.537Z,2.63
2023-05-18T01:41:25.763Z,3.65
2023-05-18T01:44:19.922Z,3.83
2023-05-18T01:46:46.598Z,3.60
2023-05-18T01:49:17.239Z,3.58
2023-05-18T01:51:45.637Z,3.95
2023-05-18T01:54:12.377Z,2.95
2023-05-18T01:56:39.815Z,2.90
2023-05-18T01:59:06.666Z,2.92
2023-05-18T02:01:33.477Z,2.70
2023-05-18T02:04:00.535Z,2.75
2023-05-18T02:06:27.364Z,2.88
2023-05-18T02:08:54.106Z,3.50
2023-05-18T02:11:21.577Z,3.42
2023-05-18T02:13:48.385Z,3.83
2023-05-18T02:16:15.213Z,3.58
2023-05-18T02:18:41.948Z,3.30
2023-05-18T02:21:10.107Z,2.75
2023-05-18T02:23:36.920Z,2.65
2023-05-18T02:26:03.680Z,2.58
2023-05-18T02:28:30.500Z,2.60
2023-05-18T02:31:10.018Z,2.58
2023-05-18T02:33:45.724Z,2.10
2023-05-18T02:36:13.143Z,2.38
2023-05-18T02:38:40.742Z,2.20
2023-05-18T02:41:08.209Z,2.70
2023-05-18T02:43:34.926Z,2.08
2023-05-18T02:46:01.755Z,1.95
2023-05-18T02:48:28.545Z,1.88
2023-05-18T02:50:55.294Z,2.42
2023-05-18T02:53:22.045Z,2.25
2023-05-18T02:55:49.271Z,2.45
2023-05-18T02:58:16.210Z,2.75
2023-05-18T03:00:43.009Z,12.15
2023-05-18T03:03:11.196Z,11.60
2023-05-18T03:05:38.010Z,7.20
2023-05-18T03:08:05.284Z,7.00
2023-05-18T03:10:32.285Z,3.60
2023-05-18T03:12:58.966Z,2.83
2023-05-18T03:15:25.691Z,2.85
2023-05-18T03:17:52.512Z,2.72
2023-05-18T03:20:19.921Z,2.35
2023-05-18T03:22:46.594Z,2.30
2023-05-18T03:25:15.088Z,1.45
2023-05-18T03:27:41.827Z,1.10
2023-05-18T03:30:09.555Z,0.95
2023-05-18T03:32:37.340Z,0.98
2023-05-18T03:35:04.865Z,0.93
2023-05-18T03:37:31.633Z,0.90
2023-05-18T03:40:11.169Z,0.60
2023-05-18T03:42:38.853Z,0.60
2023-05-18T03:45:06.399Z,0.50
2023-05-18T03:47:33.712Z,1.58
2023-05-18T03:50:00.418Z,1.00
2023-05-18T03:52:27.065Z,0.70
2023-05-18T03:54:53.831Z,0.40
2023-05-18T03:57:20.630Z,0.32
2023-05-18T03:59:47.370Z,0.30
2023-05-18T04:02:14.254Z,0.40
2023-05-18T04:04:46.077Z,0.60
2023-05-18T04:07:16.731Z,0.43
2023-05-18T04:09:44.195Z,0.28
2023-05-18T04:12:11.105Z,0.68
2023-05-18T04:14:37.914Z,0.30
2023-05-18T04:17:07.424Z,0.30
2023-05-18T04:19:34.616Z,0.30
2023-05-18T04:22:04.910Z,0.30
2023-05-18T04:24:34.931Z,0.30
2023-05-18T04:27:02.106Z,0.30
2023-05-18T04:29:29.190Z,0.20
2023-05-18T04:32:01.163Z,0.17
2023-05-18T04:34:28.520Z,0.40
2023-05-18T04:36:56.068Z,0.32
2023-05-18T04:39:23.640Z,0.40
2023-05-18T04:41:50.865Z,0.32
2023-05-18T04:44:18.394Z,0.40
2023-05-18T04:46:47.548Z,0.35
2023-05-18T04:49:14.631Z,0.45
2023-05-18T04:51:42.231Z,0.30
2023-05-18T04:54:13.089Z,0.30
2023-05-18T04:56:40.036Z,0.30
2023-05-18T04:59:06.831Z,0.20
2023-05-18T05:01:33.564Z,0.20
2023-05-18T05:04:00.559Z,0.60
2023-05-18T05:06:27.195Z,0.47
2023-05-18T05:08:54.037Z,4.78
2023-05-18T05:11:21.508Z,1.48
2023-05-18T05:13:48.339Z,0.50
2023-05-18T05:16:15.007Z,0.40
2023-05-18T05:18:41.812Z,0.70
2023-05-18T05:21:09.442Z,0.50
2023-05-18T05:23:36.145Z,0.50
2023-05-18T05:26:02.897Z,1.20
2023-05-18T05:28:29.536Z,1.73
2023-05-18T05:30:56.199Z,3.05
2023-05-18T05:33:22.864Z,1.33
2023-05-18T05:35:49.590Z,2.05
2023-05-18T05:38:16.209Z,1.23
2023-05-18T05:40:42.940Z,0.90
2023-05-18T05:43:09.665Z,0.70
2023-05-18T05:45:36.479Z,0.60
2023-05-18T05:48:03.327Z,1.10
2023-05-18T05:50:30.046Z,1.20
2023-05-18T05:52:56.876Z,1.27
2023-05-18T05:55:23.948Z,1.00
2023-05-18T05:57:50.798Z,0.93
2023-05-18T06:00:17.815Z,0.80
2023-05-18T06:02:44.590Z,0.90
2023-05-18T06:05:11.359Z,0.60
2023-05-18T06:07:38.135Z,0.80
2023-05-18T06:10:05.098Z,0.60
2023-05-18T06:12:31.732Z,0.70
2023-05-18T06:14:58.615Z,0.75
2023-05-18T06:17:26.103Z,0.40
2023-05-18T06:19:53.419Z,0.47
2023-05-18T06:22:20.394Z,0.50
2023-05-18T06:24:47.254Z,0.57
2023-05-18T06:27:14.063Z,0.65
2023-05-18T06:29:40.762Z,0.80
2023-05-18T06:32:07.823Z,0.70
2023-05-18T06:34:34.553Z,2.22
2023-05-18T06:37:01.386Z,0.70
2023-05-18T06:39:28.554Z,0.73
2023-05-18T06:41:55.272Z,0.50
2023-05-18T06:44:21.885Z,1.52
2023-05-18T06:46:49.116Z,1.17
2023-05-18T06:49:15.851Z,0.70
2023-05-18T06:51:43.957Z,0.40
2023-05-18T06:54:10.616Z,0.45
2023-05-18T06:56:37.393Z,0.40
2023-05-18T06:59:04.114Z,0.45
2023-05-18T07:01:30.844Z,0.40
2023-05-18T07:03:57.635Z,0.40
2023-05-18T07:06:24.261Z,0.40
2023-05-18T07:08:50.940Z,1.05
2023-05-18T07:11:17.628Z,2.22
2023-05-18T07:13:44.266Z,1.40
2023-05-18T07:16:11.364Z,1.50
2023-05-18T07:18:38.588Z,1.10
2023-05-18T07:21:05.752Z,0.93
2023-05-18T07:23:32.739Z,0.80
2023-05-18T07:25:59.415Z,0.77
2023-05-18T07:28:26.290Z,0.93
2023-05-18T07:30:52.986Z,1.27
2023-05-18T07:33:19.808Z,1.10
2023-05-18T07:35:46.505Z,0.80
2023-05-18T07:38:13.189Z,0.90
2023-05-18T07:40:40.119Z,1.20
2023-05-18T07:43:06.852Z,2.78
2023-05-18T07:45:34.111Z,2.67
2023-05-18T07:48:01.292Z,1.20
2023-05-18T07:50:29.700Z,1.00
2023-05-18T07:52:56.530Z,0.90
2023-05-18T07:55:23.191Z,1.50
2023-05-18T07:57:50.020Z,1.10
2023-05-18T08:00:17.400Z,1.10
2023-05-18T08:02:45.433Z,1.90
2023-05-18T08:05:12.294Z,2.10
2023-05-18T08:07:39.039Z,2.22
2023-05-18T08:10:06.199Z,2.42
2023-05-18T08:12:32.989Z,3.05
2023-05-18T08:14:59.699Z,2.90
2023-05-18T08:17:26.540Z,3.30
2023-05-18T08:19:54.015Z,3.03
2023-05-18T08:22:21.387Z,2.83
2023-05-18T08:24:48.159Z,2.67
2023-05-18T08:27:15.037Z,3.20
2023-05-18T08:29:41.794Z,3.30
2023-05-18T08:32:08.856Z,3.55
2023-05-18T08:34:35.970Z,8.90
2023-05-18T08:37:02.832Z,11.07
2023-05-18T08:39:32.022Z,6.97
2023-05-18T08:42:20.631Z,6.70
2023-05-18T08:44:52.359Z,8.93
2023-05-18T08:47:19.473Z,11.38
2023-05-18T08:49:46.609Z,6.63
2023-05-18T08:52:15.559Z,7.78
2023-05-18T08:54:42.270Z,18.00
2023-05-18T08:57:09.748Z,19.10
2023-05-18T08:59:38.555Z,10.98
2023-05-18T09:02:05.506Z,4.07
2023-05-18T09:04:34.655Z,5.13
2023-05-18T09:07:03.050Z,4.35
2023-05-18T09:09:29.872Z,3.80
2023-05-18T09:11:56.841Z,4.28
2023-05-18T09:14:25.981Z,3.97
2023-05-18T09:16:53.521Z,4.75
2023-05-18T09:19:20.393Z,5.25
2023-05-18T09:21:47.369Z,4.30
2023-05-18T09:24:15.390Z,4.65
2023-05-18T09:26:42.146Z,7.00
2023-05-18T09:29:19.140Z,4.20
2023-05-18T09:31:49.232Z,4.97
2023-05-18T09:34:16.147Z,4.55
2023-05-18T09:36:46.597Z,5.45
2023-05-18T09:39:13.428Z,4.22
2023-05-18T09:41:40.647Z,4.03
2023-05-18T09:44:10.593Z,4.20
2023-05-18T09:46:40.185Z,5.07
2023-05-18T09:49:07.231Z,4.78
2023-05-18T09:51:37.784Z,4.95
2023-05-18T09:54:08.598Z,5.75
2023-05-18T09:56:36.097Z,5.30
2023-05-18T09:59:13.437Z,5.65
2023-05-18T10:02:02.425Z,5.88
2023-05-18T10:04:37.413Z,7.40
2023-05-18T10:07:12.555Z,5.10
2023-05-18T10:09:42.676Z,11.20
2023-05-18T10:12:16.771Z,3.88
2023-05-18T10:14:44.512Z,7.50
2023-05-18T10:17:16.790Z,4.78
2023-05-18T10:19:44.379Z,3.03
2023-05-18T10:22:11.063Z,2.30
2023-05-18T10:24:43.241Z,2.22
2023-05-18T10:27:10.210Z,3.03
2023-05-18T10:29:37.703Z,2.05
2023-05-18T10:32:07.699Z,3.28
2023-05-18T10:34:34.742Z,2.60
2023-05-18T10:37:04.257Z,2.42
2023-05-18T10:39:31.974Z,2.85
2023-05-18T10:41:58.720Z,2.90
2023-05-18T10:44:25.460Z,5.10
2023-05-18T10:46:52.301Z,3.63
2023-05-18T10:49:23.578Z,3.08
2023-05-18T10:51:50.267Z,2.60
2023-05-18T10:54:16.889Z,2.92
2023-05-18T10:56:47.989Z,6.45
2023-05-18T10:59:14.742Z,2.13
2023-05-18T11:01:44.229Z,2.10
2023-05-18T11:04:10.901Z,2.58
2023-05-18T11:06:38.198Z,2.20
2023-05-18T11:09:04.920Z,2.40
2023-05-18T11:11:56.064Z,2.17
2023-05-18T11:14:32.492Z,1.98
2023-05-18T11:17:21.291Z,1.90
2023-05-18T11:20:06.984Z,1.83
2023-05-18T11:22:52.824Z,1.75
2023-05-18T11:25:38.552Z,1.80
2023-05-18T11:28:07.033Z,1.70
2023-05-18T11:30:33.828Z,1.63
2023-05-18T11:33:13.329Z,1.60
2023-05-18T11:36:07.498Z,1.65
2023-05-18T11:38:55.539Z,1.75
2023-05-18T11:41:42.619Z,2.05
2023-05-18T11:44:12.593Z,2.10
2023-05-18T11:46:51.539Z,1.92
2023-05-18T11:49:18.518Z,1.88
2023-05-18T11:52:06.929Z,2.60
2023-05-18T11:54:35.023Z,1.88
2023-05-18T11:57:02.316Z,2.10
2023-05-18T11:59:38.625Z,2.10
2023-05-18T12:02:05.627Z,2.40
2023-05-18T12:04:34.042Z,1.98
2023-05-18T12:07:04.307Z,2.17
2023-05-18T12:09:31.756Z,1.77
2023-05-18T12:11:58.522Z,2.00
2023-05-18T12:14:25.144Z,2.42
2023-05-18T12:16:51.881Z,3.20
2023-05-18T12:19:19.798Z,3.40
2023-05-18T12:21:47.224Z,1.90
2023-05-18T12:24:13.984Z,1.90
2023-05-18T12:26:41.245Z,1.95
2023-05-18T12:29:09.583Z,2.05
2023-05-18T12:31:39.792Z,2.28
2023-05-18T12:34:07.410Z,2.03
2023-05-18T12:36:34.123Z,1.63
2023-05-18T12:39:01.882Z,1.90
2023-05-18T12:41:28.580Z,2.40
2023-05-18T12:43:55.518Z,1.80
2023-05-18T12:46:24.001Z,1.50
2023-05-18T12:48:58.335Z,1.52
2023-05-18T12:53:57.734Z,1.88
2023-05-18T12:56:28.497Z,2.17
2023-05-18T12:59:04.551Z,2.28
2023-05-18T13:01:32.036Z,3.45
2023-05-18T13:03:59.173Z,1.90
2023-05-18T13:06:25.957Z,1.77
2023-05-18T13:08:58.367Z,2.05
2023-05-18T13:11:26.438Z,1.83
2023-05-18T13:13:59.671Z,2.25
2023-05-18T13:16:27.088Z,2.95
2023-05-18T13:19:01.081Z,4.50
2023-05-18T13:21:27.829Z,4.22
2023-05-18T13:23:54.498Z,3.78
2023-05-18T13:26:24.950Z,3.58
2023-05-18T13:28:53.433Z,3.80
2023-05-18T13:31:20.888Z,2.30
2023-05-18T13:33:47.641Z,2.20
2023-05-18T13:36:14.556Z,2.20
2023-05-18T13:38:41.537Z,2.28
2023-05-18T13:41:14.895Z,2.00
2023-05-18T13:43:42.615Z,1.73
2023-05-18T13:46:09.535Z,1.70
2023-05-18T13:48:36.273Z,2.00
2023-05-18T13:51:03.076Z,2.28
2023-05-18T13:53:29.910Z,2.08
2023-05-18T13:55:56.635Z,1.85
2023-05-18T13:58:23.873Z,2.00
2023-05-18T14:00:50.676Z,1.77
2023-05-18T14:03:17.681Z,1.85
2023-05-18T14:05:44.602Z,1.80
2023-05-18T14:08:11.293Z,1.88
2023-05-18T14:10:37.976Z,1.85
2023-05-18T14:13:04.731Z,1.95
2023-05-18T14:15:31.459Z,1.42
2023-05-18T14:17:58.265Z,1.92
2023-05-18T14:20:24.896Z,1.88
2023-05-18T14:22:51.652Z,1.27
2023-05-18T14:25:18.572Z,1.20
2023-05-18T14:27:45.261Z,2.88
2023-05-18T14:30:12.192Z,7.25
2023-05-18T14:32:38.874Z,4.05
2023-05-18T14:35:06.080Z,2.40
2023-05-18T14:37:33.102Z,3.35
2023-05-18T14:39:59.850Z,1.98
2023-05-18T14:42:26.711Z,1.92
2023-05-18T14:44:53.445Z,2.17
2023-05-18T14:47:20.219Z,2.28
2023-05-18T14:49:47.022Z,2.30
2023-05-18T14:52:13.794Z,2.30
2023-05-18T14:54:41.182Z,2.05
2023-05-18T14:57:08.100Z,1.70
2023-05-18T14:59:34.779Z,1.77
2023-05-18T15:02:01.576Z,1.88
2023-05-18T15:04:28.259Z,1.90
2023-05-18T15:06:55.017Z,3.25
2023-05-18T15:09:22.197Z,2.47
2023-05-18T15:11:50.775Z,1.83
2023-05-18T15:14:17.528Z,1.75
2023-05-18T15:16:44.259Z,2.42
2023-05-18T15:19:11.022Z,2.00
2023-05-18T15:21:37.877Z,2.75
2023-05-18T15:24:04.727Z,1.92
2023-05-18T15:26:31.563Z,2.15
2023-05-18T15:28:58.301Z,54.60
2023-05-18T15:31:25.130Z,117.28
2023-05-18T15:33:51.844Z,75.80
2023-05-18T15:36:18.725Z,255.23
2023-05-18T15:38:45.413Z,78.95
2023-05-18T15:41:12.049Z,147.32
2023-05-18T15:43:39.360Z,92.47
2023-05-18T15:46:06.168Z,34.40
2023-05-18T15:48:32.880Z,24.73
2023-05-18T15:50:59.602Z,15.48
2023-05-18T15:53:26.401Z,34.65
2023-05-18T15:55:57.421Z,15.63
2023-05-18T15:58:25.216Z,3.47
2023-05-18T16:00:51.933Z,7.07
2023-05-18T16:03:20.339Z,38.85
2023-05-18T16:05:47.065Z,7.05
2023-05-18T16:08:13.743Z,11.00
2023-05-18T16:10:40.476Z,12.27
2023-05-18T16:13:07.220Z,26.35
2023-05-18T16:15:34.660Z,16.67
2023-05-18T16:18:01.699Z,2.28
2023-05-18T16:20:28.636Z,1.30
2023-05-18T16:22:55.691Z,1.60
2023-05-18T16:25:22.504Z,2.35
2023-05-18T16:27:49.233Z,5.28
2023-05-18T16:30:16.102Z,11.13
2023-05-18T16:32:44.457Z,5.00
2023-05-18T16:35:11.562Z,4.78
2023-05-18T16:37:38.493Z,4.25
2023-05-18T16:40:05.842Z,4.22
2023-05-18T16:42:32.890Z,3.63
2023-05-18T16:44:59.616Z,3.63
2023-05-18T16:47:27.650Z,4.13
2023-05-18T16:49:54.519Z,5.57
2023-05-18T16:52:21.597Z,4.13
2023-05-18T16:54:48.387Z,3.35
2023-05-18T16:57:15.239Z,2.25
2023-05-18T16:59:42.594Z,3.65
2023-05-18T17:02:13.321Z,3.20
2023-05-18T17:04:45.944Z,3.10
2023-05-18T17:07:12.703Z,2.80
2023-05-18T17:09:41.699Z,3.28
2023-05-18T17:12:11.818Z,3.72
2023-05-18T17:14:38.529Z,3.72
2023-05-18T17:17:05.968Z,4.07
2023-05-18T17:19:34.794Z,3.42
2023-05-18T17:22:02.068Z,5.03
2023-05-18T17:24:28.718Z,3.95
2023-05-18T17:26:55.390Z,3.53
2023-05-18T17:29:22.129Z,3.72
2023-05-18T17:31:49.093Z,3.30
2023-05-18T17:34:15.830Z,3.83
2023-05-18T17:36:44.870Z,3.80
2023-05-18T17:39:11.678Z,4.57
2023-05-18T17:41:38.402Z,3.72
2023-05-18T17:44:05.351Z,5.40
2023-05-18T17:46:32.253Z,3.42
2023-05-18T17:48:59.255Z,3.20
2023-05-18T17:51:26.011Z,5.20
2023-05-18T17:53:52.740Z,4.32
2023-05-18T17:56:19.522Z,5.65
2023-05-18T17:58:46.288Z,4.60
2023-05-18T18:01:13.146Z,4.20
2023-05-18T18:03:39.889Z,4.72
2023-05-18T18:06:07.001Z,3.60
2023-05-18T18:08:33.896Z,27.95
2023-05-18T18:11:00.847Z,4.47
2023-05-18T18:13:27.748Z,2.20
2023-05-18T18:15:54.611Z,1.75
2023-05-18T18:18:21.505Z,2.40
2023-05-18T18:20:48.227Z,3.03
2023-05-18T18:23:15.748Z,3.33
2023-05-18T18:25:43.518Z,3.60
2023-05-18T18:28:14.641Z,3.10
2023-05-18T18:30:44.195Z,3.22
2023-05-18T18:33:11.748Z,2.85
2023-05-18T18:35:38.712Z,3.05
2023-05-18T18:38:05.549Z,2.45
2023-05-18T18:40:32.996Z,2.63
2023-05-18T18:42:59.971Z,4.53
2023-05-18T18:45:29.033Z,2.40
2023-05-18T18:47:55.836Z,2.42
2023-05-18T18:50:22.576Z,3.10
2023-05-18T18:52:49.349Z,10.02
2023-05-18T18:55:17.083Z,6.35
2023-05-18T18:57:44.116Z,9.70
2023-05-18T19:00:11.184Z,8.75
2023-05-18T19:02:38.582Z,6.40
2023-05-18T19:05:05.758Z,5.07
2023-05-18T19:07:32.797Z,5.10
2023-05-18T19:09:59.538Z,7.97
2023-05-18T19:12:26.194Z,3.10
2023-05-18T19:14:52.922Z,2.50
2023-05-18T19:17:19.593Z,2.80
2023-05-18T19:19:46.256Z,2.78
2023-05-18T19:22:12.980Z,3.00
2023-05-18T19:24:40.024Z,3.13
2023-05-18T19:27:06.805Z,3.08
2023-05-18T19:29:37.324Z,2.70
2023-05-18T19:32:04.623Z,3.60
2023-05-18T19:34:31.396Z,4.32
2023-05-18T19:36:58.100Z,4.53
2023-05-18T19:39:24.808Z,3.33
2023-05-18T19:41:51.630Z,2.47
2023-05-18T19:44:18.231Z,2.70
2023-05-18T19:46:45.008Z,2.72
2023-05-18T19:49:11.999Z,3.50
2023-05-18T19:51:38.676Z,2.63
2023-05-18T19:54:05.359Z,5.85
2023-05-18T19:56:32.061Z,5.00
2023-05-18T19:58:58.825Z,3.97
2023-05-18T20:01:25.643Z,2.60
2023-05-18T20:03:52.427Z,3.72
2023-05-18T20:06:19.536Z,5.60
2023-05-18T20:08:46.291Z,7.60
2023-05-18T20:11:13.000Z,9.20
2023-05-18T20:13:39.731Z,10.02
2023-05-18T20:16:06.836Z,8.60
2023-05-18T20:18:34.998Z,8.75
2023-05-18T20:21:02.039Z,9.65
2023-05-18T20:23:28.985Z,8.20
2023-05-18T20:25:56.212Z,6.82
2023-05-18T20:28:22.891Z,5.85
2023-05-18T20:30:50.172Z,4.97
2023-05-18T20:33:17.686Z,4.82
2023-05-18T20:35:45.309Z,4.07
2023-05-18T20:38:12.668Z,3.38
2023-05-18T20:40:39.799Z,4.05
2023-05-18T20:43:10.002Z,3.47
2023-05-18T20:45:36.813Z,4.15
2023-05-18T20:48:04.634Z,4.13
2023-05-18T20:50:31.531Z,4.70
2023-05-18T20:52:58.424Z,4.47
2023-05-18T20:55:25.136Z,5.00
2023-05-18T20:57:51.952Z,7.30
2023-05-18T21:00:18.804Z,5.07
2023-05-18T21:02:45.691Z,3.30
2023-05-18T21:05:12.855Z,4.35
2023-05-18T21:07:40.315Z,4.55
2023-05-18T21:10:07.997Z,4.00
2023-05-18T21:12:34.711Z,5.75
2023-05-18T21:15:01.765Z,4.55
2023-05-18T21:17:28.519Z,4.20
2023-05-18T21:19:55.238Z,6.95
2023-05-18T21:22:21.837Z,6.68
2023-05-18T21:24:48.608Z,4.35
2023-05-18T21:27:15.399Z,4.25
2023-05-18T21:29:42.170Z,4.90
2023-05-18T21:32:09.265Z,3.25
2023-05-18T21:34:36.084Z,3.58
2023-05-18T21:37:02.873Z,6.03
2023-05-18T21:39:29.591Z,2.95
2023-05-18T21:41:56.443Z,3.13
2023-05-18T21:44:23.127Z,3.53
2023-05-18T21:46:54.975Z,3.17
2023-05-18T21:49:21.694Z,3.17
2023-05-18T21:51:48.506Z,3.22
2023-05-18T21:54:15.162Z,3.17
2023-05-18T21:56:42.048Z,2.67
2023-05-18T21:59:08.798Z,3.20
2023-05-18T22:01:35.527Z,3.17
2023-05-18T22:04:02.503Z,9.70
2023-05-18T22:06:29.200Z,6.60
2023-05-18T22:08:55.955Z,3.83
2023-05-18T22:11:22.771Z,3.97
2023-05-18T22:13:49.565Z,7.80
2023-05-18T22:16:16.399Z,4.43
2023-05-18T22:18:43.083Z,5.68
2023-05-18T22:21:09.885Z,3.03
2023-05-18T22:23:37.402Z,3.10
2023-05-18T22:26:04.132Z,3.97
2023-05-18T22:28:31.020Z,3.05
2023-05-18T22:30:57.672Z,2.60
2023-05-18T22:33:24.995Z,4.28
2023-05-18T22:35:51.886Z,3.45
2023-05-18T22:38:18.553Z,4.20
2023-05-18T22:40:45.567Z,4.13
2023-05-18T22:43:12.397Z,4.10
2023-05-18T22:45:39.118Z,4.32
2023-05-18T22:48:06.150Z,4.53
2023-05-18T22:50:33.149Z,4.32
2023-05-18T22:53:02.268Z,3.33
2023-05-18T22:55:29.051Z,2.80
2023-05-18T22:57:55.747Z,2.20
2023-05-18T23:00:22.392Z,2.38
2023-05-18T23:02:49.261Z,2.53
2023-05-18T23:05:17.277Z,2.58
2023-05-18T23:07:44.147Z,2.55
2023-05-18T23:10:11.347Z,2.70
2023-05-18T23:12:38.291Z,2.90
2023-05-18T23:15:05.670Z,3.05
2023-05-18T23:17:32.860Z,2.88
2023-05-18T23:20:02.757Z,2.28
2023-05-18T23:22:29.433Z,2.70
2023-05-18T23:24:56.086Z,2.42
2023-05-18T23:27:22.765Z,2.47
2023-05-18T23:29:49.522Z,2.72
2023-05-18T23:32:16.280Z,2.80
2023-05-18T23:34:44.473Z,3.10
2023-05-18T23:37:11.355Z,2.70
2023-05-18T23:39:41.372Z,2.65
2023-05-18T23:42:08.382Z,2.35
2023-05-18T23:44:35.459Z,2.78
2023-05-18T23:47:02.422Z,2.60
2023-05-18T23:49:29.566Z,2.83
2023-05-18T23:51:56.224Z,2.55
2023-05-18T23:54:23.110Z,2.25
2023-05-18T23:56:50.465Z,3.00
2023-05-18T23:59:17.337Z,2.85
